Latest Weather Observations for Roebourne Airport

IDW60801

Issued at 10:32 pm WST Tuesday 21 April 2015 (issued every 30 minutes, with the page automatically refreshed every 10 minutes)

About weather observations | Map of weather stations | Latest weather observations for WA | Other Formats
Station Details ID: 004090 Name: ROEBOURNE AERO Lat: -20.76 Lon: 117.16 Height: 10.7 m
Data from the previous 72 hours. | See also: Recent months at Roebourne Airport
Date/Time
WST
Temp
°C
App
Temp
°C
Dew
Point
Rel
Hum
%
Delta-T
°C
Wind Press
QNH
hPa
Press
MSL
hPa
Rain
since 9 am
mm
Dir
 
Spd
km/h
Gust
km/h
Spd
kts
Gust
kts
21/10:30pm 16.4 12.3 14.8 90 0.9 SE 30 43 16 23 1013.1 1013.1 5.4
21/10:00pm 16.9 12.3 14.7 87 1.3 SE 32 43 17 23 1012.9 1012.9 5.4
21/09:30pm 16.8 12.3 15.0 89 1.0 SE 32 41 17 22 1013.1 1013.1 5.4
21/09:00pm 16.7 12.3 15.1 90 0.9 ESE 32 43 17 23 1013.3 1013.3 5.4
21/08:30pm 16.7 12.1 15.2 91 0.9 ESE 33 46 18 25 1013.4 1013.4 5.4
21/08:00pm 16.4 11.1 15.3 93 0.6 ESE 37 48 20 26 1013.2 1013.2 5.4
21/07:30pm 16.7 11.8 15.4 92 0.8 ESE 35 46 19 25 1012.9 1012.9 5.2
21/07:00pm 16.7 12.1 15.2 91 0.9 ESE 33 46 18 25 1012.6 1012.6 5.2
21/06:30pm 16.8 12.2 15.2 90 0.9 ESE 33 44 18 24 1012.1 1012.1 5.2
21/06:00pm 16.9 11.6 15.2 90 1.0 ESE 37 52 20 28 1011.9 1011.9 5.2
21/05:30pm 17.1 11.8 15.4 90 1.0 ESE 37 48 20 26 1011.6 1011.6 5.2
21/05:00pm 17.1 12.3 15.6 91 0.9 E 35 44 19 24 1011.2 1011.2 5.2
21/04:47pm 17.1 13.8 16.1 94 0.6 ESE 28 48 15 26 1011.2 1011.2 5.2
21/04:30pm 16.9 13.7 16.4 97 0.3 ESE 28 39 15 21 1011.1 1011.1 5.2
21/04:00pm 16.8 14.0 16.3 97 0.3 ESE 26 33 14 18 1011.3 1011.3 5.2
21/03:30pm 16.9 12.0 16.4 97 0.3 ESE 37 46 20 25 1010.8 1010.8 4.8
21/03:00pm 17.0 11.7 16.4 96 0.4 ESE 39 56 21 30 1010.9 1010.9 4.2
21/02:53pm 16.9 12.0 16.3 96 0.4 ESE 37 56 20 30 1011.0 1011.0 4.0
21/02:30pm 17.0 12.1 16.4 96 0.4 ESE 37 50 20 27 1011.0 1011.0 4.0
21/02:00pm 17.2 11.6 16.6 96 0.4 ESE 41 59 22 32 1011.2 1011.2 3.4
21/01:30pm 17.1 10.1 16.3 95 0.5 E 48 67 26 36 1011.4 1011.4 2.8
21/01:01pm 17.7 11.2 16.6 93 0.7 E 46 65 25 35 1011.5 1011.5 2.4
21/01:00pm 17.7 11.2 16.6 93 0.7 E 46 61 25 33 1011.5 1011.5 2.4
21/12:36pm 18.1 12.2 16.8 92 0.8 E 43 61 23 33 1011.7 1011.7 1.8
21/12:30pm 18.3 12.6 17.1 93 0.7 E 43 57 23 31 1011.7 1011.7 1.6
21/12:00pm 18.7 13.2 17.7 94 0.6 E 43 56 23 30 1011.7 1011.7 0.8
21/11:30am 18.2 13.3 17.2 94 0.6 ESE 39 50 21 27 1012.4 1012.4 0.4
21/11:00am 18.3 14.1 17.1 93 0.7 ESE 35 48 19 26 1013.0 1013.0 0.2
21/10:30am 18.7 13.6 16.8 89 1.1 ESE 39 48 21 26 1013.4 1013.4 0.0
21/10:10am 18.6 13.4 16.6 88 1.2 E 39 57 21 31 1013.9 1013.8 0.0
21/10:00am 18.6 12.3 16.2 86 1.4 E 44 59 24 32 1013.8 1013.7 0.0
21/09:32am 18.4 13.1 16.4 88 1.2 E 39 61 21 33 1014.0 1013.9 0.0
21/09:30am 18.5 13.7 16.7 89 1.1 E 37 50 20 27 1014.1 1014.0 0.0
21/09:00am 18.0 13.8 16.2 89 1.1 E 33 44 18 24 1014.5 1014.4 2.2
21/08:30am 17.9 13.3 16.2 90 1.0 ESE 35 44 19 24 1013.8 1013.7 2.2
21/08:00am 17.4 13.8 16.3 93 0.7 ESE 30 39 16 21 1013.7 1013.6 2.2
21/07:30am 17.2 13.2 16.1 93 0.7 ESE 32 41 17 22 1013.6 1013.5 2.0
21/07:00am 17.0 13.3 15.9 93 0.6 ESE 30 41 16 22 1013.4 1013.4 1.8
21/06:30am 17.0 12.7 15.9 93 0.6 ESE 33 46 18 25 1013.0 1013.0 1.6
21/06:04am 17.1 11.7 16.0 93 0.6 ESE 39 57 21 31 1012.9 1012.9 1.6
21/06:00am 17.0 11.9 15.9 93 0.6 ESE 37 54 20 29 1012.9 1012.9 1.6
21/05:30am 17.1 12.5 16.0 93 0.6 E 35 50 19 27 1012.9 1012.9 1.4
21/05:00am 17.2 12.2 16.2 94 0.6 ESE 37 46 20 25 1012.9 1012.9 1.0
21/04:30am 17.3 12.0 16.2 93 0.7 E 39 50 21 27 1013.1 1013.1 0.8
21/04:00am 17.4 13.2 16.1 92 0.8 E 33 46 18 25 1013.6 1013.5 0.8
21/03:30am 17.4 13.1 15.9 91 0.9 E 33 44 18 24 1013.7 1013.6 0.6
21/03:00am 17.6 13.4 16.1 91 0.9 ESE 33 44 18 24 1014.0 1013.9 0.6
21/02:30am 17.8 14.6 16.3 91 0.9 ESE 28 39 15 21 1014.4 1014.3 0.4
21/02:00am 18.1 15.3 16.3 89 1.1 E 26 32 14 17 1014.9 1014.8 0.2
21/01:30am 18.4 14.9 16.4 88 1.2 ESE 30 39 16 21 1014.8 1014.7 0.2
21/01:00am 18.7 14.7 16.3 86 1.4 E 32 43 17 23 1014.8 1014.7 0.0
21/12:30am 19.1 15.7 16.7 86 1.4 E 30 37 16 20 1014.8 1014.7 0.0
21/12:00am 18.8 15.8 16.9 89 1.1 ESE 28 37 15 20 1014.7 1014.6 0.0
 
Date/Time
WST
Temp
°C
App
Temp
°C
Dew
Point
Rel
Hum
%
Delta-T
°C
Wind Press
QNH
hPa
Press
MSL
hPa
Rain
since 9 am
mm
Dir
 
Spd
km/h
Gust
km/h
Spd
kts
Gust
kts
20/11:30pm 19.1 14.7 16.7 86 1.4 ESE 35 48 19 26 1014.7 1014.6 0.0
20/11:00pm 19.4 15.4 16.6 84 1.7 ESE 33 44 18 24 1014.7 1014.6 0.0
20/10:30pm 19.6 15.8 16.6 83 1.8 E 32 43 17 23 1014.8 1014.7 0.0
20/10:00pm 19.7 15.8 16.5 82 1.9 ESE 32 43 17 23 1014.9 1014.8 0.0
20/09:30pm 19.8 15.9 16.4 81 2.0 ESE 32 41 17 22 1014.9 1014.8 0.0
20/09:00pm 19.9 15.9 16.3 80 2.2 E 32 44 17 24 1015.2 1015.1 0.0
20/08:30pm 19.7 14.4 16.2 80 2.1 ESE 39 54 21 29 1014.7 1014.6 0.0
20/08:00pm 20.1 16.0 15.9 77 2.5 ESE 32 39 17 21 1015.0 1014.9 0.0
20/07:30pm 20.2 16.5 16.0 77 2.5 ESE 30 37 16 20 1015.0 1014.9 0.0
20/07:00pm 20.3 16.2 15.9 76 2.6 ESE 32 43 17 23 1014.3 1014.2 0.0
20/06:30pm 20.5 16.4 15.9 75 2.7 ESE 32 46 17 25 1013.9 1013.8 0.0
20/06:00pm 20.6 16.4 15.6 73 3.0 ESE 32 43 17 23 1014.1 1014.0 0.0
20/05:30pm 20.7 16.8 15.5 72 3.1 ESE 30 39 16 21 1014.0 1013.9 0.0
20/05:00pm 20.9 17.7 15.4 71 3.3 SE 26 39 14 21 1014.6 1014.5 0.0
20/04:30pm 21.1 17.7 15.9 72 3.1 ESE 28 35 15 19 1014.0 1013.9 0.0
20/04:00pm 21.5 16.1 16.0 71 3.3 ESE 39 54 21 29 1013.4 1013.4 0.0
20/03:30pm 21.6 16.5 15.9 70 3.4 E 37 46 20 25 1013.3 1013.3 0.0
20/03:00pm 21.8 17.3 16.3 71 3.3 E 35 46 19 25 1013.7 1013.6 0.0
20/02:30pm 21.8 16.8 16.1 70 3.4 E 37 48 20 26 1013.6 1013.5 0.0
20/02:00pm 22.1 17.2 16.4 70 3.5 E 37 54 20 29 1013.4 1013.4 0.0
20/01:30pm 22.2 18.0 17.1 73 3.1 E 35 52 19 28 1014.0 1013.9 0.0
20/01:28pm 22.2 18.4 17.1 73 3.1 E 33 52 18 28 1014.0 1013.9 0.0
20/01:00pm 22.5 16.8 17.2 72 3.3 E 43 54 23 29 1013.9 1013.8 0.0
20/12:30pm 22.1 18.4 17.5 75 2.8 E 33 46 18 25 1015.2 1015.1 0.0
20/12:00pm 21.6 17.9 17.0 75 2.8 E 32 43 17 23 1016.0 1015.9 0.0
20/11:30am 21.8 18.2 17.6 77 2.6 E 33 44 18 24 1016.3 1016.2 0.0
20/11:00am 21.2 17.9 17.0 77 2.6 ESE 30 39 16 21 1016.7 1016.6 0.0
20/10:30am 21.0 17.3 17.0 78 2.4 ESE 32 43 17 23 1016.8 1016.7 0.0
20/10:00am 20.4 16.5 17.0 81 2.1 E 33 44 18 24 1016.2 1016.1 0.0
20/09:30am 19.9 16.6 16.9 83 1.8 ESE 30 37 16 20 1017.2 1017.1 0.0
20/09:00am 19.7 15.9 16.7 83 1.8 ESE 32 37 17 20 1017.2 1017.1 13.0
20/08:30am 19.5 16.2 17.1 86 1.5 E 30 39 16 21 1016.7 1016.6 13.0
20/08:00am 19.0 16.5 17.0 88 1.2 ESE 26 35 14 19 1017.0 1016.9 13.0
20/07:30am 18.8 15.1 16.9 89 1.1 E 32 39 17 21 1016.0 1015.9 13.0
20/07:00am 18.5 16.1 17.3 93 0.7 ESE 26 35 14 19 1016.2 1016.1 13.0
20/06:30am 18.4 15.7 17.6 95 0.5 ESE 28 41 15 22 1016.0 1015.9 13.0
20/06:00am 18.3 16.0 17.7 96 0.4 ESE 26 35 14 19 1016.0 1015.9 13.0
20/05:30am 18.2 16.3 17.7 97 0.3 SE 24 30 13 16 1016.2 1016.1 13.0
20/05:00am 18.3 17.2 17.8 97 0.3 ESE 20 28 11 15 1015.9 1015.8 12.8
20/04:30am 18.2 16.3 17.7 97 0.3 E 24 32 13 17 1015.5 1015.4 12.6
20/04:00am 18.3 16.4 17.7 96 0.4 ESE 24 32 13 17 1016.2 1016.1 12.2
20/03:30am 18.5 17.4 17.7 95 0.5 E 20 26 11 14 1016.6 1016.5 11.6
20/03:00am 18.6 17.7 17.8 95 0.5 E 19 24 10 13 1016.9 1016.8 11.0
20/02:30am 18.8 17.3 17.8 94 0.6 E 22 28 12 15 1016.9 1016.8 10.0
20/02:00am 18.8 17.8 18.0 95 0.5 ESE 20 26 11 14 1016.6 1016.5 9.4
20/01:30am 18.8 17.9 18.1 96 0.4 ESE 20 26 11 14 1016.5 1016.4 8.8
20/01:00am 18.7 17.7 18.0 96 0.4 ESE 20 28 11 15 1016.6 1016.5 8.4
20/12:30am 18.7 17.3 18.0 96 0.4 ESE 22 30 12 16 1016.9 1016.8 8.4
20/12:00am 18.8 17.1 18.0 95 0.5 ESE 24 32 13 17 1017.0 1016.9 8.4
 
Date/Time
WST
Temp
°C
App
Temp
°C
Dew
Point
Rel
Hum
%
Delta-T
°C
Wind Press
QNH
hPa
Press
MSL
hPa
Rain
since 9 am
mm
Dir
 
Spd
km/h
Gust
km/h
Spd
kts
Gust
kts
19/11:30pm 19.2 16.1 18.4 95 0.5 ESE 32 46 17 25 1016.9 1016.8 8.2
19/11:00pm 19.5 17.4 19.0 97 0.3 ESE 28 35 15 19 1016.6 1016.5 8.2
19/10:30pm 19.6 18.2 18.8 95 0.5 ESE 24 32 13 17 1016.9 1016.8 7.4
19/10:00pm 19.9 19.2 18.6 92 0.8 E 20 28 11 15 1017.2 1017.1 6.6
19/09:30pm 19.7 18.1 18.4 92 0.8 E 24 32 13 17 1017.1 1017.0 6.6
19/09:00pm 19.8 18.3 18.5 92 0.8 ESE 24 30 13 16 1016.9 1016.8 6.6
19/08:30pm 19.7 17.4 18.4 92 0.8 ESE 28 35 15 19 1016.8 1016.7 6.6
19/08:00pm 19.7 17.4 18.5 93 0.7 ESE 28 35 15 19 1016.8 1016.7 6.6
19/07:30pm 19.6 17.4 18.6 94 0.6 ESE 28 37 15 20 1016.5 1016.4 6.6
19/07:00pm 19.5 16.9 18.7 95 0.5 ESE 30 41 16 22 1016.3 1016.2 6.6
19/06:30pm 19.3 16.7 18.6 96 0.4 ESE 30 37 16 20 1016.0 1015.9 6.6
19/06:00pm 19.3 16.3 18.6 96 0.4 ESE 32 41 17 22 1016.0 1015.9 6.6
19/05:30pm 19.3 16.3 18.6 96 0.4 ESE 32 39 17 21 1016.1 1016.0 6.2
19/05:00pm 19.3 16.6 18.5 95 0.5 ESE 30 39 16 21 1016.2 1016.1 5.6
19/04:30pm 19.4 16.4 18.6 95 0.5 ESE 32 41 17 22 1016.2 1016.1 5.0
19/04:00pm 19.5 16.4 18.5 94 0.6 ESE 32 41 17 22 1015.9 1015.8 4.4
19/03:30pm 19.5 16.8 18.5 94 0.6 ESE 30 39 16 21 1015.8 1015.7 3.4
19/03:00pm 19.6 16.9 18.4 93 0.7 ESE 30 37 16 20 1015.7 1015.6 3.2
19/02:30pm 19.7 16.5 18.2 91 0.9 ESE 32 39 17 21 1015.7 1015.6 2.8
19/02:00pm 20.2 18.4 18.7 91 0.9 SE 26 33 14 18 1016.1 1016.0 2.4
19/01:30pm 20.2 18.0 18.7 91 0.9 SE 28 39 15 21 1016.1 1016.0 2.4
19/01:00pm 19.7 17.0 18.5 93 0.7 SE 30 35 16 19 1016.4 1016.3 2.2
19/12:30pm 19.1 16.5 17.8 92 0.8 ESE 28 35 15 19 1017.2 1017.1 1.8
19/12:00pm 19.7 17.1 17.7 88 1.2 ESE 28 35 15 19 1017.7 1017.6 0.2
19/11:30am 19.5 16.6 17.1 86 1.5 ESE 28 39 15 21 1018.1 1018.0 0.2
19/11:00am 19.8 16.3 16.6 82 1.9 ESE 30 37 16 20 1018.4 1018.3 0.0
19/10:30am 20.3 17.8 17.1 82 1.9 E 26 35 14 19 1018.7 1018.6 0.0
19/10:00am 19.9 16.9 16.7 82 1.9 E 28 35 15 19 1018.6 1018.5 0.0
19/09:30am 19.3 17.1 16.9 86 1.5 ESE 24 33 13 18 1018.6 1018.5 0.0
19/09:00am 19.0 17.8 17.1 89 1.1 E 19 24 10 13 1018.8 1018.7 6.6
19/08:30am 18.9 18.1 17.2 90 1.0 E 17 20 9 11 1018.3 1018.2 6.4
19/08:00am 18.7 18.7 17.2 91 0.9 ESE 13 17 7 9 1017.9 1017.8 6.2
19/07:30am 18.6 18.7 17.4 93 0.7 SSE 13 15 7 8 1017.4 1017.3 6.0
19/07:00am 18.6 18.9 17.1 91 0.9 S 11 13 6 7 1017.0 1016.9 5.2
19/06:30am 18.6 18.1 16.8 89 1.1 SSE 15 19 8 10 1016.4 1016.3 4.2
19/06:00am 18.7 18.9 16.8 89 1.1 SSE 11 13 6 7 1015.7 1015.6 3.6
19/05:30am 19.1 19.2 16.5 85 1.6 E 11 15 6 8 1015.1 1015.0 3.0
19/05:00am 19.3 18.6 16.5 84 1.7 SE 15 20 8 11 1014.7 1014.6 2.8
19/04:30am 19.0 18.7 16.4 85 1.6 SE 13 19 7 10 1014.7 1014.6 2.8
19/04:00am 19.3 18.3 16.5 84 1.7 SE 17 20 9 11 1014.7 1014.6 2.6
19/03:30am 19.7 19.0 16.5 82 1.9 SE 15 20 8 11 1014.7 1014.6 2.4
19/03:00am 19.7 18.6 16.3 81 2.0 SE 17 20 9 11 1014.8 1014.7 2.4
19/02:30am 20.3 17.9 16.5 79 2.3 ESE 24 32 13 17 1014.6 1014.5 2.4
19/02:00am 20.3 18.1 16.9 81 2.1 ESE 24 35 13 19 1014.8 1014.7 2.4
19/01:30am 20.3 17.3 16.9 81 2.1 ESE 28 37 15 20 1015.2 1015.1 2.4
19/01:00am 20.4 17.9 17.2 82 2.0 SE 26 33 14 18 1015.6 1015.5 2.4
19/12:30am 20.5 18.6 17.7 84 1.7 SE 24 33 13 18 1015.9 1015.8 2.4
19/12:00am 20.3 18.6 18.1 87 1.4 SE 24 32 13 17 1015.9 1015.8 2.4
 
Date/Time
WST
Temp
°C
App
Temp
°C
Dew
Point
Rel
Hum
%
Delta-T
°C
Wind Press
QNH
hPa
Press
MSL
hPa
Rain
since 9 am
mm
Dir
 
Spd
km/h
Gust
km/h
Spd
kts
Gust
kts
18/11:30pm 20.3 18.1 17.9 86 1.5 SE 26 33 14 18 1016.1 1016.0 2.4
18/11:00pm 20.2 18.5 18.1 88 1.3 SE 24 33 13 18 1016.5 1016.4 2.4

Other Formats:

Comma delimited format used in spreadsheet applications
http://www.bom.gov.au/fwo/IDW60801/IDW60801.94308.axf

JavaScript Object Notation format (JSON) in row-major order
http://www.bom.gov.au/fwo/IDW60801/IDW60801.94308.json